Whitehorse International Airport
CYXY : now visible

Airfield :











YOU CAN JOIN US ON...

 
LOGIN :

Register | Disclaimer

   EN    FR    IT 

 









Legend :    VFR   Marginal VFR   IFR   Intensive IFR   Very Intensive IFR
Visi :
Ceiling :
>= 8 km
>= 3000ft
5 to 8 km
1000 to 3000 ft
1500m to 5 km
500 to 1000 ft
800 to 1500m
200 to 500 ft
< 800m
< 200 ft
Symbols :   Thunderstorms  Fog  Heavy snow  Heavy precipitations  Wind > 20 kt






- Airport Elevation : 2317 ft
- IATA code : YXY


CYXY - Whitehorse International

CURRENT METAR :
  • 082100Z 17011KT 40SM FEW040 BKN230 M07/M09 A2983 RMK SC1CI5 SLP153

EXPIRED METARs :
  • 082000Z VRB03KT 40SM FEW035 BKN230 M07/M08 A2980 RMK SC1CI5 SLP145
  • 081900Z 17008KT 40SM FEW035 BKN230 M07/M08 A2979 RMK SC2CI4 SLP143

TAF TAF CYXY
Valid from the 08 at 18:00 until the 09 at 06:00 UTC


081738Z 0818/0906 17012KT P6SM FEW015 BKN200
TEMPO 0818/0906 SCT005 BKN015 RMK NXT FCST BY 090000Z



MET'MAP, your aeronautical weather chart ! - Copyright ORBIFLY December 2007 - Disclaimer

ORBIFLY MET'MAP TEAM :

Programming & Development : Alexandra Zaïnal
Concept & original design : Baudouin d'Aumeries
Assistance for programming : Marc-Olivier Méhu
Technical & hardware support : Manuel Goepfert

Contact : metmap@orbifly.com




SOURCES & CREDITS :

   NOAA       Earth
Advisory